Tiempo atmosférico en la estación meteorológica de Las Cabezas de San Juan, Sevilla (105 m.)



Fecha
DESCASC
Temp. máxima en grados centígrados (hora)
DESCASC
Temp. mínima en grados centígrados (hora)
DESCASC
Temp. media en grados centígrados
DESCASC
Racha de viento máxima en m/sg (hora)
DESCASC
Velocidad máxima media en intervalos de 10 minutos(hora)
DESCASC
Precipitaciones diarias en mm
DESCASC
Precipitaciones de 00:00 a 06:00 en mm
DESCASC
Precipitaciones de 06:00 a 12:00 en mm
DESCASC
Precipitaciones de 12:00 a 18:00 en mm
DESCASC
Precipitaciones de 18:00 a 24:00 en mm
DESCASC
29-10-2020 27.2 (16:30) 10.9 (08:10) 19.1 4.44 (18:20) 2.78 (20:40) 0 0 0 0 0
28-10-2020 22.4 (15:50) 9.2 (02:00) 15.8 9.17 (11:40) 5.28 (11:20) 0 0 0 0 0
27-10-2020 19.7 (16:10) 7.1 (00:00) 13.4 5 (16:50) 2.5 (15:00) 0 0 0 0 0
26-10-2020 18.7 (15:00) 9.6 (00:00) 14.2 11.94 (00:10) 6.39 (00:10) 0.8 0.8 0 0 0
25-10-2020 20.9 (15:10) 11.9 (00:00) 16.4 11.67 (23:30) 6.39 (23:59) 6.8 0 0.2 0 6.6
24-10-2020 22.2 (17:00) 12.1 (00:00) 17.2 5.56 (16:10) 2.78 (16:00) 0 0 0 0 0
23-10-2020 22.5 (17:20) 12.7 (00:00) 17.6 4.72 (16:10) 2.78 (14:10) 0.2 0 0.2 0 0
22-10-2020 21.3 (17:20) 15.5 (00:00) 18.4 8.89 (13:50) 5.83 (13:50) 12 11.2 0.2 0.4 0.2
21-10-2020 23 (15:20) 16.5 (00:00) 19.8 11.67 (01:00) 6.39 (00:40) 3.8 3.6 0 0.2 0
20-10-2020 27.1 (17:10) 17.7 (00:00) 22.4 22.22 (21:50) 13.06 (21:30) 7 0 0 0 7
19-10-2020 28.4 (17:40) 19.3 (00:00) 23.8 13.89 (07:10) 9.44 (07:10) 0 0 0 0 0
18-10-2020 28.4 (16:50) 10 (00:00) 19.2 9.17 (21:00) 6.39 (20:50) 0 0 0 0 0
17-10-2020 24.1 (16:20) 10.8 (00:00) 17.5 6.11 (19:40) 3.89 (19:40) 0 0 0 0 0
16-10-2020 24.4 (16:20) 7.7 (00:00) 16 6.11 (18:50) 3.33 (02:10) 0 0 0 0 0
15-10-2020 23.2 (17:40) 7.5 (00:00) 15.4 6.39 (16:20) 3.33 (18:00) 0 0 0 0 0
14-10-2020 22.8 (17:20) 10.9 (00:00) 16.8 8.61 (17:00) 3.89 (18:00) 0 0 0 0 0
13-10-2020 28.2 (16:50) 8 (00:00) 18.1 6.11 (14:20) 3.61 (18:50) 0 0 0 0 0
12-10-2020 27.4 (17:10) 12.7 (00:00) 20 8.89 (11:20) 5.28 (11:50) 0 0 0 0 0
11-10-2020 28.7 (17:40) 14.1 (00:00) 21.4 5.83 (17:50) 2.78 (16:00) 0 0 0 0 0
10-10-2020 29.2 (17:50) 14.6 (00:00) 21.9 7.78 (18:20) 5 (18:20) 0 0 0 0 0
09-10-2020 31.1 (16:20) 14.8 (00:00) 23 5.56 (16:40) 2.5 (10:00) 0 0 0 0 0
08-10-2020 33.7 (16:00) 14.5 (00:00) 24.1 6.39 (17:10) 3.89 (16:30) 0 0 0 0 0
07-10-2020 34.2 (17:00) 14.4 (00:00) 24.3 5.83 (15:40) 3.33 (19:00) 0 0 0 0 0
06-10-2020 29.4 (17:10) 12.5 (00:00) 20.9 8.06 (15:50) 4.17 (18:00) 0 0 0 0 0
05-10-2020 24.9 (17:30) 8.4 (00:00) 16.6 7.5 (15:10) 3.89 (16:50) 0 0 0 0 0
04-10-2020 23.1 (15:20) 7.6 (00:00) 15.4 9.72 (17:10) 5.83 (17:10) 0 0 0 0 0
03-10-2020 22.6 (16:50) 9 (00:00) 15.8 8.89 (17:10) 5.56 (00:10) 0 0 0 0 0
02-10-2020 22.8 (15:40) 14.4 (00:00) 18.6 15 (16:20) 8.89 (16:20) 3 0 0 3 0
01-10-2020 27.9 (17:50) 15.7 (09:40) 21.8 8.89 (19:00) 4.44 (19:00) 0 0 0 0 0

Gráficas

Temp. máximas Temp. mínimas Temp. medias Precipitaciones Rachas de viento máximas Velocidades máximas media en intervalos de 10 minutos

Datos horarios

Fecha y hora oficial Temperatura (ºC) Velocidad del viento (km/h) Dirección del viento Racha (km/h) Dirección de racha Precipitación (mm) Presión (hPa) Tendencia (hPa) Humedad (%)
2020-10-30 23:00:00 18.5 2 Sudoeste 14 Sur 0 -- -- 59
2020-10-30 22:00:00 18.5 6 Sur 15 Sur 0 -- -- 60
2020-10-30 21:00:00 17.9 4 Sur 8 Sur 0 -- -- 61
2020-10-30 20:00:00 18.2 3 Sur 4 Sudoeste 0 -- -- 60
2020-10-30 19:00:00 20 4 Sudoeste 4 Sudoeste 0 -- -- 55
2020-10-30 18:00:00 23.8 3 Sudoeste 8 Sur 0 -- -- 43
2020-10-30 17:00:00 24.4 3 Sudoeste 7 Noroeste 0 -- -- 39
2020-10-30 16:00:00 24 5 Noroeste 13 Noroeste 0 -- -- 40
2020-10-30 15:00:00 24.5 8 Noroeste 15 Noroeste 0 -- -- 42
2020-10-30 14:00:00 23.6 7 Norte 15 Norte 0 -- -- 41
2020-10-30 13:00:00 24 7 Norte 13 Norte 0 -- -- 43
2020-10-30 12:00:00 22 4 Norte 11 Noroeste 0 -- -- 50
2020-10-30 11:00:00 19.8 5 Norte 7 Norte 0 -- -- 55
2020-10-30 10:00:00 16.4 3 Noroeste 7 Norte 0 -- -- 66
2020-10-30 09:00:00 14.5 2 Norte 9 Sudeste 0 -- -- 72
2020-10-30 08:00:00 13.7 3 Este 14 Sudeste 0 -- -- 70
2020-10-30 07:00:00 13 4 Sudeste 10 Este 0 -- -- 74
2020-10-30 06:00:00 12.9 5 Este 9 Este 0 -- -- 75
2020-10-30 05:00:00 13.4 4 Sur 8 Sur 0 -- -- 74
2020-10-30 04:00:00 13.5 6 Sudoeste 8 Sudoeste 0 -- -- 75
2020-10-30 03:00:00 12 5 Sudoeste 6 Sudoeste 0 -- -- 82
2020-10-30 02:00:00 12 0 Calma 2 Sudeste 0 -- -- 80
2020-10-30 01:00:00 13.1 0 Calma 4 Este 0 -- -- 74
2020-10-30 00:00:00 15.3 5 Este 10 Nordeste 0 -- -- 64
2020-10-29 23:00:00 16.1 4 Norte 9 Nordeste 0 -- -- 58
2020-10-29 22:00:00 18 4 Sudeste 16 Sudeste 0 -- -- 52
2020-10-29 21:00:00 18.6 3 Sudeste 15 Sudeste 0 -- -- 51
2020-10-29 20:00:00 18.1 3 Sudeste 9 Sur 0 -- -- 54
2020-10-29 19:00:00 21.8 8 Sur 16 Sur 0 -- -- 39
2020-10-29 18:00:00 24.8 5 Oeste 10 Noroeste 0 -- -- 40
2020-10-29 17:00:00 26.9 3 Noroeste 12 Noroeste 0 -- -- 36
2020-10-29 16:00:00 27 4 Norte 13 Oeste 0 -- -- 37
2020-10-29 15:00:00 26.4 6 Norte 13 Noroeste 0 -- -- 38
2020-10-29 14:00:00 25.2 4 Nordeste 10 Nordeste 0 -- -- 44
2020-10-29 13:00:00 23.2 2 Sur 8 Nordeste 0 -- -- 52
2020-10-29 12:00:00 20.9 3 Este 6 Nordeste 0 -- -- 60
2020-10-29 11:00:00 17.9 3 Norte 6 Oeste 0 -- -- 71
2020-10-29 10:00:00 15.2 2 Sur 4 Sur 0 -- -- 82
2020-10-29 09:00:00 11.5 0 Calma 4 Sudeste 0 -- -- 92
2020-10-29 08:00:00 11.2 0 Calma 10 Este 0 -- -- 90
2020-10-29 07:00:00 12 3 Este 13 Nordeste 0 -- -- 88
2020-10-29 06:00:00 12.9 6 Nordeste 12 Nordeste 0 -- -- 84
2020-10-29 05:00:00 13.8 5 Este 15 Este 0 -- -- 81
2020-10-29 04:00:00 13.8 5 Este 12 Nordeste 0 -- -- 82
2020-10-29 03:00:00 14.1 5 Nordeste 12 Este 0 -- -- 80
2020-10-29 02:00:00 14.7 6 Este 12 Este 0 -- -- 78
2020-10-29 01:00:00 15.5 5 Este 12 Este 0 -- -- 74
2020-10-29 00:00:00 15 6 Este 11 Nordeste 0 -- -- 76
2020-10-28 23:00:00 15.3 5 Este 9 Nordeste 0 -- -- 74
2020-10-28 22:00:00 16.2 4 Este 9 Este 0 -- -- 70
2020-10-28 21:00:00 16.7 5 Este 12 Nordeste 0 -- -- 68
2020-10-28 20:00:00 17.1 6 Nordeste 10 Nordeste 0 -- -- 67
2020-10-28 19:00:00 18.7 5 Nordeste 17 Nordeste 0 -- -- 62
2020-10-28 18:00:00 20.8 10 Nordeste 23 Nordeste 0 -- -- 56
2020-10-28 17:00:00 22.3 12 Nordeste 27 Norte 0 -- -- 51
2020-10-28 16:00:00 22.3 14 Norte 27 Norte 0 -- -- 49
2020-10-28 15:00:00 21.6 15 Nordeste 28 Nordeste 0 -- -- 51
2020-10-28 14:00:00 20.9 15 Norte 28 Norte 0 -- -- 51
2020-10-28 13:00:00 20.1 12 Norte 27 Nordeste 0 -- -- 54
2020-10-28 12:00:00 18.5 15 Nordeste 33 Nordeste 0 -- -- 61
2020-10-28 11:00:00 17.6 15 Nordeste 26 Nordeste 0 -- -- 63
2020-10-28 10:00:00 14.4 11 Nordeste 21 Nordeste 0 -- -- 71
2020-10-28 09:00:00 11.4 5 Nordeste 15 Este 0 -- -- 82
2020-10-28 08:00:00 10.3 5 Este 14 Este 0 -- -- 80
2020-10-28 07:00:00 10.2 5 Este 12 Este 0 -- -- 79
2020-10-28 06:00:00 10.2 4 Nordeste 13 Este 0 -- -- 81
2020-10-28 05:00:00 10.1 5 Este 11 Nordeste 0 -- -- 85
2020-10-28 04:00:00 10 3 Nordeste 9 Este 0 -- -- 91
2020-10-28 03:00:00 10.3 6 Este 9 Este 0 -- -- 95
2020-10-28 02:00:00 9.2 0 Calma 4 Este 0 -- -- 93
2020-10-28 01:00:00 9.8 3 Este 4 Este 0 -- -- 93
2020-10-28 00:00:00 10.3 2 Sur 3 Sur 0 -- -- 91
2020-10-27 23:00:00 10.8 0 Calma 4 Oeste 0 -- -- 90
2020-10-27 22:00:00 12 0 Calma 8 Sudoeste 0 -- -- 81
2020-10-27 21:00:00 12.2 6 Sudoeste 9 Oeste 0 -- -- 74
2020-10-27 20:00:00 12.6 0 Calma 4 Noroeste 0 -- -- 79
2020-10-27 19:00:00 15.1 0 Calma 8 Noroeste 0 -- -- 65
2020-10-27 18:00:00 18.1 6 Norte 17 Norte 0 -- -- 49
2020-10-27 17:00:00 19.5 6 Norte 18 Norte 0 -- -- 44
2020-10-27 16:00:00 19.5 6 Norte 17 Nordeste 0 -- -- 44
2020-10-27 15:00:00 18.9 9 Nordeste 18 Nordeste 0 -- -- 48
2020-10-27 14:00:00 18.5 6 Norte 14 Nordeste 0 -- -- 51
2020-10-27 13:00:00 18.5 6 Nordeste 14 Norte 0 -- -- 56
2020-10-27 12:00:00 17 5 Norte 13 Nordeste 0 -- -- 60
2020-10-27 11:00:00 15.2 6 Norte 14 Norte 0 -- -- 68
2020-10-27 10:00:00 12.9 4 Nordeste 12 Nordeste 0 -- -- 76
2020-10-27 09:00:00 9 2 Sudeste 6 Este 0 -- -- 95
2020-10-27 08:00:00 7.2 0 Calma 3 Sudoeste 0 -- -- 92
2020-10-27 07:00:00 8 2 Noroeste 7 Este 0 -- -- 89
2020-10-27 06:00:00 8.9 5 Este 8 Este 0 -- -- 88
2020-10-27 05:00:00 9.2 6 Este 9 Este 0 -- -- 89
2020-10-27 04:00:00 8.6 6 Este 8 Este 0 -- -- 92
2020-10-27 03:00:00 8.1 3 Este 4 Este 0 -- -- 93
2020-10-27 02:00:00 8.7 2 Sudeste 5 Sudeste 0 -- -- 91
2020-10-27 01:00:00 9.2 2 Sur 6 Sudeste 0 -- -- 92
2020-10-27 00:00:00 9.6 0 Calma 2 Sur 0 -- -- 89
2020-10-26 23:00:00 10.9 0 Calma 5 Oeste 0 -- -- 85
2020-10-26 22:00:00 12.3 0 Calma 11 Sudoeste 0 -- -- 75
2020-10-26 21:00:00 13.6 4 Oeste 10 Oeste 0 -- -- 69
2020-10-26 20:00:00 13.6 3 Sudoeste 8 Sudoeste 0 -- -- 74
2020-10-26 19:00:00 15.1 4 Oeste 10 Noroeste 0 -- -- 61
2020-10-26 18:00:00 17.4 8 Noroeste 16 Noroeste 0 -- -- 52
2020-10-26 17:00:00 18 8 Noroeste 22 Noroeste 0 -- -- 50
2020-10-26 16:00:00 18 10 Noroeste 27 Noroeste 0 -- -- 53
2020-10-26 15:00:00 18.7 10 Noroeste 24 Noroeste 0 -- -- 53
2020-10-26 14:00:00 18.2 13 Noroeste 28 Noroeste 0 -- -- 55
2020-10-26 13:00:00 16.6 11 Norte 22 Noroeste 0 -- -- 65
2020-10-26 12:00:00 15.6 11 Noroeste 24 Noroeste 0 -- -- 73
2020-10-26 11:00:00 15.1 14 Noroeste 24 Noroeste 0 -- -- 73
2020-10-26 10:00:00 14 9 Noroeste 16 Noroeste 0 -- -- 89
2020-10-26 09:00:00 12.3 9 Noroeste 15 Noroeste 0 -- -- 95
2020-10-26 08:00:00 11.6 5 Noroeste 10 Noroeste 0 -- -- 95
2020-10-26 07:00:00 11.9 4 Noroeste 14 Noroeste 0 -- -- 93
2020-10-26 06:00:00 12.8 8 Noroeste 21 Noroeste 0 -- -- 91
2020-10-26 05:00:00 13.9 12 Noroeste 19 Noroeste 0 -- -- 92
2020-10-26 04:00:00 14.5 10 Noroeste 21 Oeste 0 -- -- 92
2020-10-26 03:00:00 14.9 14 Oeste 21 Oeste 0 -- -- 95
2020-10-26 02:00:00 14.7 6 Oeste 14 Oeste 0 -- -- 96
2020-10-26 01:00:00 14.6 5 Oeste 43 Noroeste 0.8 -- -- 96
2020-10-26 00:00:00 15.3 23 Noroeste 42 Noroeste 2.8 -- -- 96
2020-10-25 23:00:00 17.2 6 Sudoeste 22 Sur 1.6 -- -- 95
2020-10-25 22:00:00 16.9 8 Sudoeste 26 Sudoeste 2.2 -- -- 94
2020-10-25 21:00:00 18 11 Sudoeste 33 Sur 0 -- -- 83
2020-10-25 20:00:00 18.3 10 Sudoeste 25 Sur 0 -- -- 78
2020-10-25 19:00:00 18.2 13 Sur 24 Sudoeste 0 -- -- 78
2020-10-25 18:00:00 19 10 Sudoeste 27 Sur 0 -- -- 74
2020-10-25 17:00:00 19.7 7 Sudoeste 27 Sudoeste 0 -- -- 67
2020-10-25 16:00:00 20.4 9 Sudoeste 25 Sudoeste 0 -- -- 65
2020-10-25 15:00:00 20.5 11 Sudoeste 23 Sur 0 -- -- 62
2020-10-25 14:00:00 18.9 10 Oeste 21 Oeste 0 -- -- 67
2020-10-25 13:00:00 19.2 6 Oeste 24 Sudoeste 0 -- -- 66
2020-10-25 12:00:00 18.9 8 Oeste 19 Noroeste 0 -- -- 67
2020-10-25 11:00:00 18.1 8 Sudoeste 17 Sudoeste 0 -- -- 73
2020-10-25 10:00:00 15.4 5 Sur 10 Sur 0 -- -- 88
2020-10-25 09:00:00 12.9 6 Sur 11 Sur 0.2 -- -- 96
2020-10-25 08:00:00 12 6 Sur 10 Sur 0 -- -- 96
2020-10-25 07:00:00 12.5 7 Sur 14 Sur 0 -- -- 96
2020-10-25 06:00:00 12.9 6 Sudeste 15 Sur 0 -- -- 97
2020-10-25 05:00:00 13 9 Sudeste 16 Sur 0 -- -- 97
2020-10-25 04:00:00 12.7 12 Sudeste 15 Sudeste 0 -- -- 96
2020-10-25 03:00:00 13.2 9 Sudeste 12 Sudeste 0 -- -- 96
2020-10-25 02:00:00 13.8 8 Sudeste 10 Sudeste 0 -- -- 95
2020-10-25 01:00:00 13.7 3 Sur 13 Sudeste 0 -- -- 92
2020-10-25 00:00:00 14.4 6 Sur 11 Sur 0 -- -- 93
2020-10-24 23:00:00 14.9 4 Sur 5 Sudoeste 0 -- -- 92
2020-10-24 22:00:00 15.8 3 Sur 7 Sudoeste 0 -- -- 90
2020-10-24 21:00:00 16.8 3 Sudoeste 7 Oeste 0 -- -- 84
2020-10-24 20:00:00 18.2 3 Sudoeste 16 Oeste 0 -- -- 71
2020-10-24 19:00:00 19.9 6 Oeste 16 Oeste 0 -- -- 67
2020-10-24 18:00:00 21.6 8 Noroeste 15 Oeste 0 -- -- 57
2020-10-24 17:00:00 22.2 6 Oeste 20 Noroeste 0 -- -- 53
2020-10-24 16:00:00 21.6 10 Noroeste 17 Oeste 0 -- -- 57
2020-10-24 15:00:00 20.8 8 Noroeste 15 Oeste 0 -- -- 63
2020-10-24 14:00:00 20 6 Noroeste 12 Noroeste 0 -- -- 69
2020-10-24 13:00:00 18.7 4 Noroeste 13 Noroeste 0 -- -- 78
2020-10-24 12:00:00 18.4 4 Norte 9 Oeste 0 -- -- 81
2020-10-24 11:00:00 17.1 2 Sudeste 10 Sudeste 0 -- -- 86
2020-10-24 10:00:00 13.6 5 Sudeste 9 Sudeste 0 -- -- 97
2020-10-24 09:00:00 12.3 3 Este 8 Sudeste 0 -- -- 97
2020-10-24 08:00:00 12.4 4 Este 6 Este 0 -- -- 97
2020-10-24 07:00:00 12.2 3 Sudeste 7 Este 0 -- -- 96
2020-10-24 06:00:00 12.4 4 Sudeste 8 Este 0 -- -- 96
2020-10-24 05:00:00 12.4 3 Sudeste 5 Este 0 -- -- 95
2020-10-24 04:00:00 13.3 3 Sudeste 11 Sudeste 0 -- -- 95
2020-10-24 03:00:00 14.3 7 Sudeste 10 Sudeste 0 -- -- 96
2020-10-24 02:00:00 14 0 Calma 4 Sudeste 0 -- -- 95
2020-10-24 01:00:00 13.8 3 Sur 6 Sudeste 0 -- -- 94
2020-10-24 00:00:00 14.1 3 Sur 5 Sur 0 -- -- 93
2020-10-23 23:00:00 14.6 3 Sur 6 Sudoeste 0 -- -- 91
2020-10-23 22:00:00 15.7 3 Sudoeste 7 Sudoeste 0 -- -- 87
2020-10-23 21:00:00 16.7 3 Sudoeste 6 Sudoeste 0 -- -- 82
2020-10-23 20:00:00 18.1 3 Sudoeste 9 Sudoeste 0 -- -- 73
2020-10-23 19:00:00 20.2 4 Sudoeste 13 Noroeste 0 -- -- 63
2020-10-23 18:00:00 22 5 Oeste 15 Sudoeste 0 -- -- 55
2020-10-23 17:00:00 21.7 5 Sudoeste 17 Noroeste 0 -- -- 57
2020-10-23 16:00:00 21.5 7 Oeste 17 Noroeste 0 -- -- 59
2020-10-23 15:00:00 20.1 6 Noroeste 17 Noroeste 0 -- -- 63
2020-10-23 14:00:00 20.4 5 Noroeste 14 Noroeste 0 -- -- 65
2020-10-23 13:00:00 19.4 5 Noroeste 14 Noroeste 0 -- -- 66
2020-10-23 12:00:00 19.5 4 Sur 13 Sur 0 -- -- 66
2020-10-23 11:00:00 17.2 8 Sudeste 14 Sudeste 0 -- -- 83
2020-10-23 10:00:00 14.4 9 Sudeste 12 Sudeste 0.2 -- -- 97
2020-10-23 09:00:00 12.9 4 Sur 8 Sur 0 -- -- 97
2020-10-23 08:00:00 12.9 0 Calma 4 Sur 0 -- -- 97
2020-10-23 07:00:00 13.5 3 Sur 7 Sudeste 0 -- -- 97
2020-10-23 06:00:00 13.8 3 Sudoeste 4 Sudoeste 0 -- -- 97
2020-10-23 05:00:00 13.6 0 Calma 4 Sudeste 0 -- -- 97
2020-10-23 04:00:00 13.8 3 Sur 5 Sudoeste 0 -- -- 96
2020-10-23 03:00:00 14.2 4 Sur 4 Sur 0 -- -- 95
2020-10-23 02:00:00 14.6 3 Sur 6 Sur 0 -- -- 94
2020-10-23 01:00:00 15.3 5 Sur 10 Sur 0 -- -- 94
2020-10-23 00:00:00 15.5 4 Sur 9 Sur 0 -- -- 94
2020-10-22 23:00:00 16 5 Sur 14 Sudoeste 0.2 -- -- 93
2020-10-22 22:00:00 16.3 9 Sur 22 Sur 0 -- -- 91
2020-10-22 21:00:00 16.9 13 Sur 23 Sur 0 -- -- 89
2020-10-22 20:00:00 17.7 12 Sur 25 Sudoeste 0 -- -- 84
2020-10-22 19:00:00 19.3 9 Sudoeste 19 Sudoeste 0 -- -- 78
2020-10-22 18:00:00 20.6 8 Sudoeste 26 Sudoeste 0 -- -- 74
2020-10-22 17:00:00 20.8 11 Sudoeste 23 Sur 0 -- -- 75
2020-10-22 16:00:00 19.5 13 Sur 28 Sur 0.4 -- -- 86
2020-10-22 15:00:00 19.7 15 Sur 29 Sur 0 -- -- 84
2020-10-22 14:00:00 19.6 19 Sur 32 Sur 0 -- -- 83
2020-10-22 13:00:00 18.2 17 Sur 27 Sudoeste 0 -- -- 90
2020-10-22 12:00:00 17.6 15 Sur 24 Sur 0 -- -- 93
2020-10-22 11:00:00 17.1 13 Sur 24 Sudeste 0 -- -- 93
2020-10-22 10:00:00 16.6 11 Sur 24 Sur 0.2 -- -- 94
2020-10-22 09:00:00 16.4 13 Sur 23 Sur 0 -- -- 93
2020-10-22 08:00:00 16.3 14 Sur 23 Sur 0 -- -- 94
2020-10-22 07:00:00 16.1 11 Sur 27 Sur 0 -- -- 93
2020-10-22 06:00:00 16.3 15 Sur 27 Sudoeste 2 -- -- 94
2020-10-22 05:00:00 16.7 8 Sudoeste 23 Sur 6.2 -- -- 93
2020-10-22 04:00:00 17.4 12 Sur 19 Sur 3 -- -- 89
2020-10-22 03:00:00 18.7 7 Sudoeste 27 Sur 0 -- -- 81
2020-10-22 02:00:00 18.8 15 Sur 26 Sur 0 -- -- 83
2020-10-22 01:00:00 19 16 Sur 28 Sur 0 -- -- 84
2020-10-22 00:00:00 19 18 Sur 31 Sudeste 0 -- -- 83
2020-10-21 23:00:00 19 14 Sur 29 Sur 0 -- -- 83
2020-10-21 22:00:00 18.8 12 Sur 21 Sudoeste 0 -- -- 83
2020-10-21 21:00:00 19 8 Sur 22 Sur 0 -- -- 81
2020-10-21 20:00:00 19.7 16 Sur 26 Sudoeste 0 -- -- 79
2020-10-21 19:00:00 20.5 15 Sur 27 Sur 0 -- -- 76
2020-10-21 18:00:00 21.3 13 Sudoeste 31 Sudoeste 0 -- -- 68
2020-10-21 17:00:00 21 13 Sur 35 Sur 0.2 -- -- 77
2020-10-21 16:00:00 22.3 14 Sudoeste 28 Sudoeste 0 -- -- 66
2020-10-21 15:00:00 22.6 6 Sudoeste 34 Sur 0 -- -- 63
2020-10-21 14:00:00 22 12 Sudoeste 31 Sudoeste 0 -- -- 71
2020-10-21 13:00:00 21.1 19 Sur 32 Sur 0 -- -- 76
2020-10-21 12:00:00 19.9 17 Sur 27 Sur 0 -- -- 85
2020-10-21 11:00:00 18.7 14 Sur 21 Sudoeste 0 -- -- 89
2020-10-21 10:00:00 18 12 Sur 26 Sur 0 -- -- 92
2020-10-21 09:00:00 17.3 11 Sur 26 Sur 0 -- -- 94
2020-10-21 08:00:00 17.3 15 Sur 30 Sur 0 -- -- 94
2020-10-21 07:00:00 17.3 16 Sur 35 Sur 0 -- -- 94
2020-10-21 06:00:00 16.5 16 Sur 31 Sur 0 -- -- 93
2020-10-21 05:00:00 17.3 19 Sur 34 Sur 3.6 -- -- 93
2020-10-21 04:00:00 17.5 20 Sur 34 Sur 0 -- -- 90
2020-10-21 03:00:00 17.9 19 Sur 33 Sudeste 0 -- -- 92
2020-10-21 02:00:00 17.9 21 Sur 35 Sur 0 -- -- 92
2020-10-21 01:00:00 18.1 22 Sur 42 Sur 0 -- -- 92
2020-10-21 00:00:00 17.8 21 Sur 34 Sudoeste 0 -- -- 93
2020-10-20 23:00:00 17.9 16 Sur 50 Sur 1.2 -- -- 92
2020-10-20 22:00:00 19.1 42 Sur 80 Sur 2.8 -- -- 92
2020-10-20 21:00:00 19 35 Sur 58 Sur 2 -- -- 87
2020-10-20 20:00:00 20.1 31 Sur 51 Sur 0.6 -- -- 77
2020-10-20 19:00:00 20.8 24 Sur 55 Sur 0.4 -- -- 71
2020-10-20 18:00:00 23.7 37 Sur 75 Sur 0 -- -- 55
2020-10-20 17:00:00 27 30 Sur 57 Sur 0 -- -- 37
2020-10-20 16:00:00 25.3 19 Sur 41 Sur 0 -- -- 44
2020-10-20 15:00:00 25.7 25 Sudeste 42 Sudeste 0 -- -- 43
2020-10-20 14:00:00 25.4 23 Sur 43 Sudeste 0 -- -- 46
2020-10-20 13:00:00 24.2 23 Sudeste 47 Sudeste 0 -- -- 49
2020-10-20 12:00:00 23.8 25 Sur 48 Sur 0 -- -- 50
2020-10-20 11:00:00 21.7 19 Sudeste 31 Sudeste 0 -- -- 59
2020-10-20 10:00:00 20.6 17 Sur 33 Sur 0 -- -- 62
2020-10-20 09:00:00 20.3 19 Sur 34 Sur 0 -- -- 63
2020-10-20 08:00:00 20.7 21 Sur 38 Sudeste 0 -- -- 61
2020-10-20 07:00:00 20.6 19 Sur 33 Sudeste 0 -- -- 62
2020-10-20 06:00:00 21.2 23 Sudeste 36 Sur 0 -- -- 56
2020-10-20 05:00:00 20.7 16 Sudeste 32 Sudeste 0 -- -- 57
2020-10-20 04:00:00 20.6 18 Sur 36 Sur 0 -- -- 59
2020-10-20 03:00:00 20.5 19 Sur 32 Sur 0 -- -- 57
2020-10-20 02:00:00 20.8 17 Sur 36 Sudeste 0 -- -- 55
2020-10-20 01:00:00 20.7 15 Sur 30 Sur 0 -- -- 54
2020-10-20 00:00:00 20.4 6 Sur 18 Sur 0 -- -- 51
2020-10-19 23:00:00 20.1 6 Sur 14 Sur 0 -- -- 50
2020-10-19 22:00:00 20.8 7 Sudeste 17 Sur 0 -- -- 47
2020-10-19 21:00:00 21.3 4 Sur 18 Sudeste 0 -- -- 46
2020-10-19 20:00:00 23.1 15 Sudeste 35 Sudeste 0 -- -- 42
2020-10-19 19:00:00 25.4 21 Sudeste 35 Sudeste 0 -- -- 33
2020-10-19 18:00:00 27.6 24 Sur 44 Sudeste 0 -- -- 27
2020-10-19 17:00:00 27.4 22 Sur 46 Sudeste 0 -- -- 28
2020-10-19 16:00:00 27.7 27 Sudeste 48 Sudeste 0 -- -- 29
2020-10-19 15:00:00 27 27 Sudeste 45 Sudeste 0 -- -- 32
2020-10-19 14:00:00 27.3 24 Sudeste 44 Sudeste 0 -- -- 32
2020-10-19 13:00:00 26.4 31 Sudeste 45 Sudeste 0 -- -- 32
2020-10-19 12:00:00 24.8 22 Sur 47 Sudeste 0 -- -- 32
2020-10-19 11:00:00 23.2 19 Sur 44 Sudeste 0 -- -- 30
2020-10-19 10:00:00 21.4 18 Sudeste 35 Sudeste 0 -- -- 29
2020-10-19 09:00:00 19.9 18 Sudeste 39 Sudeste 0 -- -- 27
2020-10-19 08:00:00 20 25 Sudeste 50 Sudeste 0 -- -- 29
2020-10-19 07:00:00 19.7 31 Sudeste 47 Sudeste 0 -- -- 29
2020-10-19 06:00:00 20.1 23 Sur 44 Sudeste 0 -- -- 27
2020-10-19 05:00:00 20.1 24 Sudeste 44 Sudeste 0 -- -- 28
2020-10-19 04:00:00 19.9 23 Sudeste 40 Sur 0 -- -- 30
2020-10-19 03:00:00 19.8 21 Sudeste 34 Sudeste 0 -- -- 30
2020-10-19 02:00:00 20 16 Sudeste 28 Sudeste 0 -- -- 30
2020-10-19 01:00:00 19.8 17 Sudeste 30 Sudeste 0 -- -- 31
2020-10-19 00:00:00 19.4 15 Sudeste 27 Este 0 -- -- 31
2020-10-18 23:00:00 19.3 15 Sudeste 30 Sudeste 0 -- -- 33
2020-10-18 22:00:00 20.7 21 Sudeste 31 Sudeste 0 -- -- 30
2020-10-18 21:00:00 20.9 23 Sudeste 33 Sudeste 0 -- -- 33
2020-10-18 20:00:00 22.7 17 Sudeste 28 Sudeste 0 -- -- 31
2020-10-18 19:00:00 25.6 14 Sudeste 26 Sudeste 0 -- -- 29
2020-10-18 18:00:00 27.8 11 Sudeste 22 Sudoeste 0 -- -- 27
2020-10-18 17:00:00 28.3 15 Sur 25 Sur 0 -- -- 27
2020-10-18 16:00:00 27.9 9 Sur 27 Sur 0 -- -- 28
2020-10-18 15:00:00 26.7 6 Sudoeste 31 Sur 0 -- -- 29
2020-10-18 14:00:00 25.4 9 Norte 19 Noroeste 0 -- -- 34
2020-10-18 13:00:00 23.4 8 Norte 16 Norte 0 -- -- 40
2020-10-18 12:00:00 22.4 4 Sur 18 Sudeste 0 -- -- 40
2020-10-18 11:00:00 19.3 13 Sudeste 19 Sudeste 0 -- -- 47
2020-10-18 10:00:00 13 4 Este 12 Este 0 -- -- 68
2020-10-18 09:00:00 10.3 6 Este 10 Este 0 -- -- 75
2020-10-18 08:00:00 11 4 Este 10 Este 0 -- -- 72
2020-10-18 07:00:00 12.2 7 Este 13 Sudeste 0 -- -- 71
2020-10-18 06:00:00 13.5 8 Este 15 Sudeste 0 -- -- 69
2020-10-18 05:00:00 13.6 8 Sudeste 15 Sudeste 0 -- -- 70
2020-10-18 04:00:00 13.1 7 Sudeste 13 Sudeste 0 -- -- 74
2020-10-18 03:00:00 11.5 6 Sudeste 9 Sudeste 0 -- -- 83
2020-10-18 02:00:00 10 3 Sudeste 5 Este 0 -- -- 79
2020-10-18 01:00:00 11 0 Calma 4 Este 0 -- -- 76
2020-10-18 00:00:00 12 4 Este 6 Este 0 -- -- 74
2020-10-17 23:00:00 13.8 2 Sur 4 Sudeste 0 -- -- 73
2020-10-17 22:00:00 15.6 3 Sudoeste 10 Oeste 0 -- -- 67
2020-10-17 21:00:00 17.4 6 Oeste 19 Oeste 0 -- -- 61
2020-10-17 20:00:00 19 10 Oeste 22 Oeste 0 -- -- 54
2020-10-17 19:00:00 22.2 12 Noroeste 19 Norte 0 -- -- 38
2020-10-17 18:00:00 23.8 5 Norte 20 Norte 0 -- -- 35
2020-10-17 17:00:00 23.9 6 Noroeste 17 Noroeste 0 -- -- 35
2020-10-17 16:00:00 23.8 6 Norte 18 Noroeste 0 -- -- 37
2020-10-17 15:00:00 23 3 Norte 16 Noroeste 0 -- -- 39
2020-10-17 14:00:00 22.1 7 Norte 19 Noroeste 0 -- -- 42
2020-10-17 13:00:00 20.5 9 Noroeste 18 Noroeste 0 -- -- 47
2020-10-17 12:00:00 19 6 Oeste 14 Sudoeste 0 -- -- 53
2020-10-17 11:00:00 16.6 2 Sur 8 Oeste 0 -- -- 66
2020-10-17 10:00:00 12.7 2 Sur 4 Sur 0 -- -- 83
2020-10-17 09:00:00 10.8 3 Sudoeste 5 Sur 0 -- -- 85
2020-10-17 08:00:00 11.9 4 Sur 15 Sudeste 0 -- -- 82
2020-10-17 07:00:00 12.9 8 Sudeste 13 Sudeste 0 -- -- 82
2020-10-17 06:00:00 13.5 10 Sudeste 15 Sudeste 0 -- -- 81
2020-10-17 05:00:00 13.5 9 Sur 14 Sur 0 -- -- 85
2020-10-17 04:00:00 13.6 9 Sur 14 Sudeste 0 -- -- 86
2020-10-17 03:00:00 13.6 8 Sur 13 Sudeste 0 -- -- 84
2020-10-17 02:00:00 13.5 7 Sur 15 Sudeste 0 -- -- 83
2020-10-17 01:00:00 12.9 6 Sudeste 10 Sudeste 0 -- -- 78
2020-10-17 00:00:00 13.5 4 Sur 7 Sur 0 -- -- 74
2020-10-16 23:00:00 14.3 5 Sur 9 Sudoeste 0 -- -- 66
2020-10-16 22:00:00 15.9 3 Sudoeste 9 Sudoeste 0 -- -- 53
2020-10-16 21:00:00 17.9 5 Sur 10 Sudoeste 0 -- -- 48
2020-10-16 20:00:00 20 5 Sudoeste 19 Noroeste 0 -- -- 42
2020-10-16 19:00:00 22.3 11 Noroeste 22 Noroeste 0 -- -- 40
2020-10-16 18:00:00 23.4 10 Noroeste 16 Noroeste 0 -- -- 39
2020-10-16 17:00:00 23.3 4 Oeste 17 Noroeste 0 -- -- 38
2020-10-16 16:00:00 24 10 Noroeste 19 Oeste 0 -- -- 36
2020-10-16 15:00:00 23 4 Noroeste 16 Noroeste 0 -- -- 43
2020-10-16 14:00:00 22.3 4 Noroeste 20 Sudoeste 0 -- -- 45
2020-10-16 13:00:00 21.4 5 Sudoeste 15 Sudoeste 0 -- -- 49
2020-10-16 12:00:00 19.2 3 Noroeste 10 Noroeste 0 -- -- 54
2020-10-16 11:00:00 16.7 2 Noroeste 7 Sudeste 0 -- -- 63
2020-10-16 10:00:00 13 5 Sudeste 8 Sudeste 0 -- -- 67
2020-10-16 09:00:00 9.2 3 Sur 8 Este 0 -- -- 67
2020-10-16 08:00:00 7.8 4 Sudeste 7 Sudeste 0 -- -- 66
2020-10-16 07:00:00 9.1 2 Norte 8 Este 0 -- -- 64
2020-10-16 06:00:00 10.9 0 Calma 10 Sudeste 0 -- -- 60
2020-10-16 05:00:00 12.2 5 Sudeste 12 Este 0 -- -- 58
2020-10-16 04:00:00 12.1 6 Este 10 Este 0 -- -- 59
2020-10-16 03:00:00 12.9 4 Este 14 Sudeste 0 -- -- 69
2020-10-16 02:00:00 13.5 10 Sudeste 14 Sudeste 0 -- -- 68
2020-10-16 01:00:00 13.3 7 Sudeste 10 Sudeste 0 -- -- 70
2020-10-16 00:00:00 13.5 3 Sudeste 8 Sudoeste 0 -- -- 64
2020-10-15 23:00:00 14.6 4 Sudoeste 10 Sudoeste 0 -- -- 59
2020-10-15 22:00:00 15.4 4 Sur 11 Oeste 0 -- -- 46
2020-10-15 21:00:00 16.8 3 Sudoeste 12 Oeste 0 -- -- 42
2020-10-15 20:00:00 18.7 3 Oeste 17 Noroeste 0 -- -- 36
2020-10-15 19:00:00 21 12 Oeste 21 Oeste 0 -- -- 34
2020-10-15 18:00:00 22.7 12 Noroeste 22 Sudoeste 0 -- -- 31
2020-10-15 17:00:00 22.8 10 Noroeste 23 Norte 0 -- -- 29
2020-10-15 16:00:00 23.1 9 Noroeste 22 Noroeste 0 -- -- 29
2020-10-15 15:00:00 22.5 9 Oeste 17 Norte 0 -- -- 30
2020-10-15 14:00:00 21.3 8 Noroeste 15 Norte 0 -- -- 35
2020-10-15 13:00:00 19.3 5 Oeste 11 Noroeste 0 -- -- 40
2020-10-15 12:00:00 16.9 5 Noroeste 10 Oeste 0 -- -- 48
2020-10-15 11:00:00 14.8 4 Oeste 8 Noroeste 0 -- -- 54
2020-10-15 10:00:00 10.6 2 Noroeste 5 Sudeste 0 -- -- 74
2020-10-15 09:00:00 7.5 3 Sudeste 8 Sudeste 0 -- -- 80
2020-10-15 08:00:00 8.1 3 Sur 6 Sudeste 0 -- -- 79
2020-10-15 07:00:00 8.6 3 Sudeste 6 Sur 0 -- -- 77
2020-10-15 06:00:00 9.7 5 Sur 8 Sur 0 -- -- 75
2020-10-15 05:00:00 10.4 4 Sudoeste 9 Sudoeste 0 -- -- 85
2020-10-15 04:00:00 10.5 5 Sudoeste 9 Sur 0 -- -- 83
2020-10-15 03:00:00 10.9 4 Sur 8 Sudeste 0 -- -- 80
2020-10-15 02:00:00 11.4 3 Sudoeste 6 Sur 0 -- -- 74
2020-10-15 01:00:00 12.8 5 Sudoeste 9 Sudoeste 0 -- -- 71
2020-10-15 00:00:00 14.1 4 Sudoeste 8 Sur 0 -- -- 67
2020-10-14 23:00:00 15.3 5 Sur 10 Sudoeste 0 -- -- 65
2020-10-14 22:00:00 16.5 5 Sudoeste 16 Sudoeste 0 -- -- 61
2020-10-14 21:00:00 17.2 8 Sudoeste 19 Sur 0 -- -- 57
2020-10-14 20:00:00 18.6 6 Sudoeste 21 Oeste 0 -- -- 52
2020-10-14 19:00:00 20.6 6 Sudoeste 24 Noroeste 0 -- -- 46
2020-10-14 18:00:00 22.1 14 Oeste 24 Noroeste 0 -- -- 41
2020-10-14 17:00:00 22.5 12 Oeste 31 Noroeste 0 -- -- 41
2020-10-14 16:00:00 22.3 9 Oeste 26 Oeste 0 -- -- 42
2020-10-14 15:00:00 21.3 10 Oeste 26 Noroeste 0 -- -- 43
2020-10-14 14:00:00 19.4 10 Oeste 19 Oeste 0 -- -- 51
2020-10-14 13:00:00 18.3 5 Oeste 13 Sur 0 -- -- 55
2020-10-14 12:00:00 16 5 Oeste 14 Oeste 0 -- -- 62
2020-10-14 11:00:00 13.6 8 Oeste 15 Oeste 0 -- -- 71
2020-10-14 10:00:00 12.3 4 Sudoeste 12 Oeste 0 -- -- 76
2020-10-14 09:00:00 10.9 5 Sudoeste 9 Sudoeste 0 -- -- 81
2020-10-14 08:00:00 11.9 5 Sudoeste 12 Oeste 0 -- -- 81
2020-10-14 07:00:00 13.1 3 Sudoeste 15 Oeste 0 -- -- 79
2020-10-14 06:00:00 14.5 6 Oeste 14 Oeste 0 -- -- 77
2020-10-14 05:00:00 14.9 5 Sudoeste 9 Sudoeste 0 -- -- 76
2020-10-14 04:00:00 15.3 6 Sur 13 Sur 0 -- -- 71
2020-10-14 03:00:00 16.3 9 Sur 15 Sur 0 -- -- 67
2020-10-14 02:00:00 16.6 9 Sur 15 Sur 0 -- -- 60
2020-10-14 01:00:00 17.4 9 Sur 18 Sur 0 -- -- 53
2020-10-14 00:00:00 16.9 8 Sur 14 Sur 0 -- -- 57
2020-10-13 23:00:00 17.1 5 Sudoeste 12 Sudoeste 0 -- -- 57
2020-10-13 22:00:00 18.3 3 Sudoeste 14 Oeste 0 -- -- 47
2020-10-13 21:00:00 20.6 3 Oeste 13 Sudoeste 0 -- -- 34
2020-10-13 20:00:00 23.3 5 Oeste 16 Noroeste 0 -- -- 29
2020-10-13 19:00:00 26.1 11 Noroeste 22 Noroeste 0 -- -- 25
2020-10-13 18:00:00 27.8 9 Norte 21 Noroeste 0 -- -- 24
2020-10-13 17:00:00 28.2 7 Norte 18 Noroeste 0 -- -- 23
2020-10-13 16:00:00 28 9 Norte 22 Nordeste 0 -- -- 22
2020-10-13 15:00:00 27.1 10 Norte 22 Nordeste 0 -- -- 23
2020-10-13 14:00:00 25.5 12 Nordeste 21 Nordeste 0 -- -- 24
2020-10-13 13:00:00 23.2 8 Nordeste 16 Nordeste 0 -- -- 27
2020-10-13 12:00:00 20.3 8 Nordeste 15 Nordeste 0 -- -- 34
2020-10-13 11:00:00 16.6 5 Norte 9 Norte 0 -- -- 45
2020-10-13 10:00:00 12.4 3 Este 8 Este 0 -- -- 67
2020-10-13 09:00:00 8.3 5 Este 9 Este 0 -- -- 63
2020-10-13 08:00:00 8.8 3 Este 7 Este 0 -- -- 55
2020-10-13 07:00:00 9.8 4 Este 8 Este 0 -- -- 47
2020-10-13 06:00:00 10.5 3 Este 8 Este 0 -- -- 41
2020-10-13 05:00:00 11 6 Este 8 Este 0 -- -- 39
2020-10-13 04:00:00 -- -- -- -- -- -- -- -- --
2020-10-13 03:00:00 10.1 3 Este 4 Este 0 -- -- 38
2020-10-13 02:00:00 11.7 3 Sur 5 Sudeste 0 -- -- 36
2020-10-13 01:00:00 -- -- -- -- -- -- -- -- --
2020-10-13 00:00:00 16.4 7 Este 10 Este 0 -- -- 28
2020-10-12 23:00:00 16.9 7 Este 10 Este 0 -- -- 27
2020-10-12 22:00:00 17.6 5 Este 8 Este 0 -- -- 26
2020-10-12 21:00:00 19.2 5 Este 10 Este 0 -- -- 24
2020-10-12 20:00:00 22.3 4 Este 21 Nordeste 0 -- -- 21
2020-10-12 19:00:00 25 12 Nordeste 27 Nordeste 0 -- -- 18
2020-10-12 18:00:00 -- -- -- -- -- -- -- -- --
2020-10-12 17:00:00 27.3 14 Nordeste 27 Nordeste 0 -- -- 16
2020-10-12 16:00:00 27 13 Nordeste 26 Nordeste 0 -- -- 18
2020-10-12 15:00:00 25.9 12 Nordeste 28 Nordeste 0 -- -- 22
2020-10-12 14:00:00 24.9 12 Nordeste 28 Nordeste 0 -- -- 28
2020-10-12 13:00:00 22.8 15 Nordeste 31 Nordeste 0 -- -- 33
2020-10-12 12:00:00 20.7 17 Nordeste 32 Nordeste 0 -- -- 33
2020-10-12 11:00:00 17.8 16 Nordeste 31 Nordeste 0 -- -- 37
2020-10-12 10:00:00 14.9 13 Nordeste 24 Este 0 -- -- 41
2020-10-12 09:00:00 12.7 7 Nordeste 23 Nordeste 0 -- -- 44
2020-10-12 08:00:00 13.4 9 Nordeste 28 Nordeste 0 -- -- 41
2020-10-12 07:00:00 14.7 13 Nordeste 31 Nordeste 0 -- -- 39
2020-10-12 06:00:00 15.2 13 Nordeste 27 Nordeste 0 -- -- 36
2020-10-12 05:00:00 15 8 Nordeste 20 Nordeste 0 -- -- 37
2020-10-12 04:00:00 -- -- -- -- -- -- -- -- --
2020-10-12 03:00:00 15.8 5 Este 11 Este 0 -- -- 36
2020-10-12 02:00:00 17.6 6 Este 13 Este 0 -- -- 35
2020-10-12 01:00:00 18.9 8 Sudeste 15 Este 0 -- -- 34
2020-10-12 00:00:00 18.1 5 Este 11 Nordeste 0 -- -- 61
2020-10-11 23:00:00 19.2 5 Sudoeste 8 Oeste 0 -- -- 76
2020-10-11 22:00:00 21.1 5 Sudoeste 10 Oeste 0 -- -- 69
2020-10-11 21:00:00 -- -- -- -- -- -- -- -- --
2020-10-11 20:00:00 -- -- -- -- -- -- -- -- --
2020-10-11 19:00:00 27.9 0 Calma 17 Noroeste 0 -- -- 41
2020-10-11 18:00:00 28.6 8 Noroeste 21 Noroeste 0 -- -- 41
2020-10-11 17:00:00 28.3 7 Norte 19 Noroeste 0 -- -- 42
2020-10-11 16:00:00 27.2 10 Norte 20 Norte 0 -- -- 49
2020-10-11 15:00:00 26.3 8 Noroeste 17 Noroeste 0 -- -- 56
2020-10-11 14:00:00 25.2 4 Norte 18 Norte 0 -- -- 60
2020-10-11 13:00:00 23.6 6 Norte 19 Noroeste 0 -- -- 65
2020-10-11 12:00:00 22.6 7 Norte 14 Norte 0 -- -- 67
2020-10-11 11:00:00 20.1 6 Este 12 Nordeste 0 -- -- 76
2020-10-11 10:00:00 17 5 Nordeste 8 Nordeste 0 -- -- 89
2020-10-11 09:00:00 14.7 5 Este 8 Este 0 -- -- 93
2020-10-11 08:00:00 14.1 5 Este 10 Este 0 -- -- 92
2020-10-11 07:00:00 14.8 5 Sur 8 Sur 0 -- -- 92
2020-10-11 06:00:00 14.9 3 Sudoeste 5 Noroeste 0 -- -- 90
2020-10-11 05:00:00 16.1 0 Calma 9 Sudeste 0 -- -- 90
2020-10-11 04:00:00 16.2 3 Sur 5 Sudeste 0 -- -- 90
2020-10-11 03:00:00 16.3 2 Sur 4 Sudoeste 0 -- -- 87
2020-10-11 02:00:00 17 3 Sudoeste 5 Sudoeste 0 -- -- 85
2020-10-11 01:00:00 17.4 2 Sur 4 Sur 0 -- -- 82
2020-10-11 00:00:00 18.4 3 Sur 6 Sur 0 -- -- 80
2020-10-10 23:00:00 19.3 3 Sudoeste 8 Sudoeste 0 -- -- 77
2020-10-10 22:00:00 20.4 3 Sudoeste 12 Oeste 0 -- -- 71
2020-10-10 21:00:00 21.7 4 Oeste 12 Oeste 0 -- -- 66
2020-10-10 20:00:00 24.1 3 Sudoeste 20 Noroeste 0 -- -- 55
2020-10-10 19:00:00 26 10 Oeste 28 Oeste 0 -- -- 48
2020-10-10 18:00:00 29.2 8 Noroeste 18 Noroeste 0 -- -- 37
2020-10-10 17:00:00 29 6 Noroeste 20 Noroeste 0 -- -- 38
2020-10-10 16:00:00 28.5 12 Noroeste 19 Noroeste 0 -- -- 40
2020-10-10 15:00:00 28 10 Noroeste 20 Noroeste 0 -- -- 42
2020-10-10 14:00:00 26.9 6 Noroeste 13 Oeste 0 -- -- 45
2020-10-10 13:00:00 25.2 3 Norte 10 Noroeste 0 -- -- 49
2020-10-10 12:00:00 23.8 5 Noroeste 11 Norte 0 -- -- 54
2020-10-10 11:00:00 21.6 5 Norte 12 Nordeste 0 -- -- 61
2020-10-10 10:00:00 17.8 3 Este 9 Sudeste 0 -- -- 69
2020-10-10 09:00:00 15 4 Este 8 Este 0 -- -- 80
2020-10-10 08:00:00 14.9 6 Este 9 Este 0 -- -- 79
2020-10-10 07:00:00 15.6 4 Este 7 Sudoeste 0 -- -- 79
2020-10-10 06:00:00 16.8 3 Sur 11 Sudeste 0 -- -- 76
2020-10-10 05:00:00 15.9 4 Sur 10 Sur 0 -- -- 75
2020-10-10 04:00:00 15.5 3 Sur 5 Sudoeste 0 -- -- 70
2020-10-10 03:00:00 16.5 3 Sur 5 Este 0 -- -- 70
2020-10-10 02:00:00 17.7 5 Sur 9 Sur 0 -- -- 69
2020-10-10 01:00:00 18.6 6 Sur 9 Sudoeste 0 -- -- 66
2020-10-10 00:00:00 19.7 5 Sudoeste 8 Sudoeste 0 -- -- 62
2020-10-09 23:00:00 20.4 3 Sudoeste 9 Oeste 0 -- -- 56
2020-10-09 22:00:00 22.1 4 Sudoeste 12 Sudoeste 0 -- -- 48
2020-10-09 21:00:00 22.3 0 Calma 3 Sur 0 -- -- 40
2020-10-09 20:00:00 26.3 0 Calma 11 Noroeste 0 -- -- 33
2020-10-09 19:00:00 28.8 6 Noroeste 16 Noroeste 0 -- -- 33
2020-10-09 18:00:00 28.9 9 Noroeste 17 Noroeste 0 -- -- 34
2020-10-09 17:00:00 30.2 7 Norte 20 Noroeste 0 -- -- 32
2020-10-09 16:00:00 30.4 6 Noroeste 15 Norte 0 -- -- 29
2020-10-09 15:00:00 29.7 6 Nordeste 17 Nordeste 0 -- -- 31
2020-10-09 14:00:00 28.7 5 Este 13 Este 0 -- -- 33
2020-10-09 13:00:00 26.1 3 Nordeste 8 Nordeste 0 -- -- 40
2020-10-09 12:00:00 24.1 5 Noroeste 9 Noroeste 0 -- -- 43
2020-10-09 11:00:00 22.7 4 Sudeste 12 Sudeste 0 -- -- 47
2020-10-09 10:00:00 20.2 9 Sudeste 13 Sudeste 0 -- -- 52
2020-10-09 09:00:00 17.9 6 Sudeste 15 Sudeste 0 -- -- 53
2020-10-09 08:00:00 18 6 Sudeste 10 Sudeste 0 -- -- 52
2020-10-09 07:00:00 17.4 6 Este 13 Este 0 -- -- 56
2020-10-09 06:00:00 15.3 6 Este 9 Este 0 -- -- 61
2020-10-09 05:00:00 15.3 3 Este 5 Sur 0 -- -- 59
2020-10-09 04:00:00 15.5 3 Este 6 Sudeste 0 -- -- 58
2020-10-09 03:00:00 16 3 Sur 4 Sudoeste 0 -- -- 58
2020-10-09 02:00:00 16.9 3 Este 5 Este 0 -- -- 55
2020-10-09 01:00:00 17.8 2 Sudeste 6 Nordeste 0 -- -- 54
2020-10-09 00:00:00 18.2 4 Este 6 Nordeste 0 -- -- 51
2020-10-08 23:00:00 19.8 0 Calma 4 Sudeste 0 -- -- 47
2020-10-08 22:00:00 21.8 3 Sur 6 Sudoeste 0 -- -- 45
2020-10-08 21:00:00 24.7 6 Sur 11 Sudoeste 0 -- -- 40
2020-10-08 20:00:00 27.5 4 Sudoeste 18 Sur 0 -- -- 35
2020-10-08 19:00:00 30.1 11 Sur 23 Sudoeste 0 -- -- 30
2020-10-08 18:00:00 32.4 13 Sur 23 Sur 0 -- -- 26
2020-10-08 17:00:00 33.1 13 Sur 22 Sur 0 -- -- 26
2020-10-08 16:00:00 33.7 9 Sur 19 Sur 0 -- -- 25
2020-10-08 15:00:00 32.3 8 Noroeste 21 Oeste 0 -- -- 27
2020-10-08 14:00:00 30.9 4 Nordeste 16 Noroeste 0 -- -- 30
2020-10-08 13:00:00 28.9 7 Noroeste 12 Noroeste 0 -- -- 32
2020-10-08 12:00:00 27.4 4 Norte 10 Norte 0 -- -- 36
2020-10-08 11:00:00 24.2 5 Nordeste 9 Este 0 -- -- 41
2020-10-08 10:00:00 19.2 0 Calma 7 Este 0 -- -- 55
2020-10-08 09:00:00 15 4 Este 9 Este 0 -- -- 60
2020-10-08 08:00:00 15.6 0 Calma 5 Este 0 -- -- 59
2020-10-08 07:00:00 17.6 3 Sudeste 8 Este 0 -- -- 54
2020-10-08 06:00:00 19.5 5 Este 13 Sudeste 0 -- -- 49
2020-10-08 05:00:00 20.7 7 Sudeste 15 Sudeste 0 -- -- 47
2020-10-08 04:00:00 19.6 5 Este 15 Sudeste 0 -- -- 50
2020-10-08 03:00:00 18.3 6 Este 10 Este 0 -- -- 58
2020-10-08 02:00:00 18.5 5 Sur 6 Sur 0 -- -- 61
2020-10-08 01:00:00 19.9 3 Sur 6 Sur 0 -- -- 58
2020-10-08 00:00:00 21.3 6 Sur 9 Sudoeste 0 -- -- 55
2020-10-07 23:00:00 22.6 3 Sudoeste 9 Oeste 0 -- -- 52
2020-10-07 22:00:00 24.7 5 Oeste 10 Oeste 0 -- -- 42
2020-10-07 21:00:00 26.8 4 Sudoeste 13 Sur 0 -- -- 34
2020-10-07 20:00:00 29.1 5 Oeste 20 Noroeste 0 -- -- 33
2020-10-07 19:00:00 32.2 12 Noroeste 20 Noroeste 0 -- -- 27
2020-10-07 18:00:00 34 3 Norte 13 Nordeste 0 -- -- 24
2020-10-07 17:00:00 34.2 6 Nordeste 21 Oeste 0 -- -- 24
2020-10-07 16:00:00 33.1 8 Noroeste 21 Noroeste 0 -- -- 25
2020-10-07 15:00:00 32.3 5 Noroeste 19 Norte 0 -- -- 28
2020-10-07 14:00:00 30.9 6 Norte 16 Este 0 -- -- 31
2020-10-07 13:00:00 29.2 6 Nordeste 15 Nordeste 0 -- -- 34
2020-10-07 12:00:00 26 6 Nordeste 14 Nordeste 0 -- -- 39
2020-10-07 11:00:00 20.8 6 Nordeste 10 Nordeste 0 -- -- 47
2020-10-07 10:00:00 16.7 0 Calma 7 Noroeste 0 -- -- 59
2020-10-07 09:00:00 15.3 0 Calma 8 Este 0 -- -- 58
2020-10-07 08:00:00 15.3 0 Calma 10 Este 0 -- -- 59
2020-10-07 07:00:00 16.4 3 Norte 12 Este 0 -- -- 57
2020-10-07 06:00:00 15.8 6 Este 10 Este 0 -- -- 66
2020-10-07 05:00:00 14.9 4 Este 8 Este 0 -- -- 66
2020-10-07 04:00:00 15.6 4 Sudeste 7 Sudeste 0 -- -- 68
2020-10-07 03:00:00 16.4 2 Sur 6 Sudeste 0 -- -- 65
2020-10-07 02:00:00 17.4 3 Sudeste 5 Sur 0 -- -- 64
2020-10-07 01:00:00 17.5 2 Sudeste 8 Sudoeste 0 -- -- 61
2020-10-07 00:00:00 19 4 Sudoeste 9 Sudoeste 0 -- -- 59
2020-10-06 23:00:00 20.5 2 Sudoeste 11 Noroeste 0 -- -- 54
2020-10-06 22:00:00 22.2 4 Oeste 12 Oeste 0 -- -- 42
2020-10-06 21:00:00 23.8 5 Este 10 Norte 0 -- -- 39
2020-10-06 20:00:00 26.2 8 Nordeste 19 Nordeste 0 -- -- 35
2020-10-06 19:00:00 28.1 9 Norte 24 Nordeste 0 -- -- 32
2020-10-06 18:00:00 29.2 15 Nordeste 27 Nordeste 0 -- -- 30
2020-10-06 17:00:00 29.1 9 Norte 23 Nordeste 0 -- -- 30
2020-10-06 16:00:00 28.6 13 Nordeste 29 Nordeste 0 -- -- 30
2020-10-06 15:00:00 27.7 12 Norte 25 Este 0 -- -- 31
2020-10-06 14:00:00 26.6 12 Nordeste 24 Nordeste 0 -- -- 32
2020-10-06 13:00:00 24.8 12 Nordeste 24 Nordeste 0 -- -- 35
2020-10-06 12:00:00 23.1 9 Nordeste 18 Norte 0 -- -- 39
2020-10-06 11:00:00 19.9 7 Nordeste 14 Nordeste 0 -- -- 46
2020-10-06 10:00:00 16.2 5 Nordeste 11 Nordeste 0 -- -- 56
2020-10-06 09:00:00 14 5 Este 11 Este 0 -- -- 61
2020-10-06 08:00:00 13.7 5 Este 10 Este 0 -- -- 60
2020-10-06 07:00:00 13.9 6 Este 11 Este 0 -- -- 61
2020-10-06 06:00:00 13.9 4 Este 14 Norte 0 -- -- 61
2020-10-06 05:00:00 13.3 5 Nordeste 10 Nordeste 0 -- -- 68
2020-10-06 04:00:00 13.5 4 Este 9 Este 0 -- -- 70
2020-10-06 03:00:00 14.6 5 Este 8 Este 0 -- -- 70
2020-10-06 02:00:00 13.5 5 Nordeste 8 Norte 0 -- -- 85
2020-10-06 01:00:00 13 4 Este 5 Este 0 -- -- 77
2020-10-06 00:00:00 14.7 2 Sur 6 Sudoeste 0 -- -- 74
2020-10-05 23:00:00 16.8 2 Sur 13 Sudoeste 0 -- -- 70
2020-10-05 22:00:00 18 2 Sudoeste 7 Sudoeste 0 -- -- 65
2020-10-05 21:00:00 19.7 3 Sudoeste 12 Oeste 0 -- -- 55
2020-10-05 20:00:00 22.3 2 Oeste 13 Noroeste 0 -- -- 39
2020-10-05 19:00:00 24 8 Noroeste 20 Noroeste 0 -- -- 35
2020-10-05 18:00:00 24.6 11 Norte 24 Noroeste 0 -- -- 35
2020-10-05 17:00:00 24.6 8 Norte 27 Norte 0 -- -- 36
2020-10-05 16:00:00 23.9 13 Norte 27 Noroeste 0 -- -- 37
2020-10-05 15:00:00 22.2 13 Norte 26 Noroeste 0 -- -- 40
2020-10-05 14:00:00 21.8 10 Norte 25 Norte 0 -- -- 43
2020-10-05 13:00:00 19.8 7 Norte 22 Nordeste 0 -- -- 51
2020-10-05 12:00:00 18.3 6 Norte 19 Nordeste 0 -- -- 57
2020-10-05 11:00:00 16.1 10 Nordeste 17 Norte 0 -- -- 64
2020-10-05 10:00:00 13.2 4 Nordeste 10 Este 0 -- -- 77
2020-10-05 09:00:00 9 4 Nordeste 6 Norte 0 -- -- 91
2020-10-05 08:00:00 8.5 0 Calma 5 Noroeste 0 -- -- 90
2020-10-05 07:00:00 8.7 3 Noroeste 4 Noroeste 0 -- -- 89
2020-10-05 06:00:00 9.7 0 Calma 5 Norte 0 -- -- 87
2020-10-05 05:00:00 10.9 0 Calma 6 Oeste 0 -- -- 86
2020-10-05 04:00:00 12.3 2 Sudoeste 7 Noroeste 0 -- -- 82
2020-10-05 03:00:00 13.8 3 Noroeste 8 Noroeste 0 -- -- 81
2020-10-05 02:00:00 15.1 3 Oeste 12 Oeste 0 -- -- 80
2020-10-05 01:00:00 15.6 5 Sudoeste 9 Sudoeste 0 -- -- 81
2020-10-05 00:00:00 16.3 3 Sudoeste 9 Oeste 0 -- -- 80
2020-10-04 23:00:00 17.3 3 Sudoeste 14 Oeste 0 -- -- 80
2020-10-04 22:00:00 17.8 3 Sudoeste 14 Oeste 0 -- -- 80
2020-10-04 21:00:00 18.4 5 Sudoeste 17 Oeste 0 -- -- 76
2020-10-04 20:00:00 19.1 12 Oeste 26 Oeste 0 -- -- 70
2020-10-04 19:00:00 20.3 14 Oeste 29 Oeste 0 -- -- 63
2020-10-04 18:00:00 21.2 14 Oeste 35 Oeste 0 -- -- 57
2020-10-04 17:00:00 22.2 17 Oeste 33 Oeste 0 -- -- 49
2020-10-04 16:00:00 22.8 16 Noroeste 29 Oeste 0 -- -- 47
2020-10-04 15:00:00 22.8 15 Noroeste 27 Noroeste 0 -- -- 42
2020-10-04 14:00:00 21.5 12 Oeste 28 Noroeste 0 -- -- 43
2020-10-04 13:00:00 20.2 7 Noroeste 17 Noroeste 0 -- -- 47
2020-10-04 12:00:00 19 5 Noroeste 9 Oeste 0 -- -- 54
2020-10-04 11:00:00 16.1 2 Oeste 6 Noroeste 0 -- -- 68
2020-10-04 10:00:00 12.1 0 Calma 4 Sur 0 -- -- 94
2020-10-04 09:00:00 8.8 3 Sur 6 Sudeste 0 -- -- 95
2020-10-04 08:00:00 8.1 0 Calma 2 Sur 0 -- -- 92
2020-10-04 07:00:00 8.7 0 Calma 5 Sur 0 -- -- 92
2020-10-04 06:00:00 9.5 0 Calma 5 Sudeste 0 -- -- 91
2020-10-04 05:00:00 10.6 3 Sudeste 8 Sudeste 0 -- -- 89
2020-10-04 04:00:00 11 2 Sur 5 Sur 0 -- -- 89
2020-10-04 03:00:00 13 4 Sudoeste 9 Sudoeste 0 -- -- 87
2020-10-04 02:00:00 13.1 4 Sudoeste 8 Sur 0 -- -- 86
2020-10-04 01:00:00 13.4 4 Sur 5 Sudoeste 0 -- -- 81
2020-10-04 00:00:00 14.6 5 Sudoeste 9 Sudoeste 0 -- -- 77
2020-10-03 23:00:00 15.4 4 Sudoeste 8 Sudoeste 0 -- -- 72
2020-10-03 22:00:00 16 3 Sudoeste 10 Oeste 0 -- -- 68
2020-10-03 21:00:00 17 4 Oeste 25 Oeste 0 -- -- 65
2020-10-03 20:00:00 18.5 10 Oeste 26 Oeste 0 -- -- 55
2020-10-03 19:00:00 20.6 13 Oeste 29 Noroeste 0 -- -- 44
2020-10-03 18:00:00 22.4 15 Noroeste 32 Noroeste 0 -- -- 34
2020-10-03 17:00:00 22.4 17 Noroeste 31 Oeste 0 -- -- 35
2020-10-03 16:00:00 21.6 8 Noroeste 25 Noroeste 0 -- -- 38
2020-10-03 15:00:00 20.7 13 Noroeste 23 Sudoeste 0 -- -- 40
2020-10-03 14:00:00 19.5 7 Norte 19 Norte 0 -- -- 45
2020-10-03 13:00:00 17.9 6 Norte 14 Noroeste 0 -- -- 52
2020-10-03 12:00:00 16 8 Noroeste 14 Noroeste 0 -- -- 63
2020-10-03 11:00:00 13.6 8 Noroeste 14 Noroeste 0 -- -- 75
2020-10-03 10:00:00 11.6 4 Oeste 10 Oeste 0 -- -- 80
2020-10-03 09:00:00 9.4 5 Sur 9 Sudoeste 0 -- -- 87
2020-10-03 08:00:00 9.6 5 Sudoeste 9 Sudoeste 0 -- -- 84
2020-10-03 07:00:00 9.4 3 Sur 11 Sudoeste 0 -- -- 83
2020-10-03 06:00:00 9.6 6 Sur 9 Sudoeste 0 -- -- 81
2020-10-03 05:00:00 10.2 2 Sur 14 Sudoeste 0 -- -- 78
2020-10-03 04:00:00 11.5 7 Oeste 16 Oeste 0 -- -- 72
2020-10-03 03:00:00 12.1 9 Oeste 21 Noroeste 0 -- -- 71
2020-10-03 02:00:00 12.6 13 Noroeste 24 Noroeste 0 -- -- 71
2020-10-03 01:00:00 13.2 16 Noroeste 28 Noroeste 0 -- -- 71
2020-10-03 00:00:00 14.4 23 Noroeste 32 Noroeste 0 -- -- 67
2020-10-02 23:00:00 15.2 12 Noroeste 22 Noroeste 0 -- -- 68
2020-10-02 22:00:00 15.8 18 Noroeste 25 Noroeste 0 -- -- 67
2020-10-02 21:00:00 17.6 12 Noroeste 36 Noroeste 0 -- -- 66
2020-10-02 20:00:00 19.2 22 Noroeste 39 Noroeste 0 -- -- 68
2020-10-02 19:00:00 20.2 25 Noroeste 41 Noroeste 0 -- -- 73
2020-10-02 18:00:00 20 17 Oeste 44 Noroeste 1.2 -- -- 85
2020-10-02 17:00:00 19 25 Noroeste 54 Oeste 1.4 -- -- 93
2020-10-02 16:00:00 22.2 17 Oeste 38 Oeste 0 -- -- 74
2020-10-02 15:00:00 20.1 10 Sudoeste 35 Oeste 0.4 -- -- 92
2020-10-02 14:00:00 20.7 13 Oeste 48 Sudoeste 0 -- -- 79
2020-10-02 13:00:00 21.7 11 Sudoeste 42 Sudoeste 0 -- -- 68
2020-10-02 12:00:00 20.9 15 Sudoeste 40 Sudoeste 0 -- -- 74
2020-10-02 11:00:00 19.6 13 Sudoeste 30 Sudoeste 0 -- -- 74
2020-10-02 10:00:00 18.1 10 Sudoeste 23 Sudoeste 0 -- -- 76
2020-10-02 09:00:00 16.8 7 Sudoeste 20 Sudoeste 0 -- -- 80
2020-10-02 08:00:00 15.7 3 Sudoeste 14 Sudoeste 0 -- -- 82
2020-10-02 07:00:00 16 3 Sudoeste 22 Noroeste 0 -- -- 77
2020-10-02 06:00:00 15.9 10 Oeste 26 Noroeste 0 -- -- 77
2020-10-02 05:00:00 15.9 4 Sudoeste 14 Sudoeste 0 -- -- 77
2020-10-02 04:00:00 16.5 4 Sudoeste 24 Oeste 0 -- -- 74
2020-10-02 03:00:00 17 5 Sudoeste 14 Sudoeste 0 -- -- 72
2020-10-02 02:00:00 17.7 6 Sudoeste 12 Oeste 0 -- -- 73
2020-10-02 01:00:00 18.7 7 Oeste 17 Oeste 0 -- -- 74
2020-10-02 00:00:00 19.1 4 Sudoeste 13 Sur 0 -- -- 82
2020-10-01 23:00:00 19.8 4 Sudoeste 14 Sudoeste 0 -- -- 81
2020-10-01 22:00:00 20.4 4 Sudoeste 12 Oeste 0 -- -- 77
2020-10-01 21:00:00 21 5 Sudoeste 19 Sudoeste 0 -- -- 72
2020-10-01 20:00:00 21.8 10 Oeste 27 Oeste 0 -- -- 69
2020-10-01 19:00:00 23.8 16 Oeste 32 Oeste 0 -- -- 59
2020-10-01 18:00:00 27.1 10 Oeste 26 Oeste 0 -- -- 47
2020-10-01 17:00:00 27.3 12 Oeste 24 Oeste 0 -- -- 38
2020-10-01 16:00:00 26.6 12 Noroeste 26 Noroeste 0 -- -- 42
2020-10-01 15:00:00 25.2 10 Noroeste 22 Noroeste 0 -- -- 42
2020-10-01 14:00:00 23.1 12 Oeste 23 Oeste 0 -- -- 43
2020-10-01 13:00:00 21.7 14 Noroeste 25 Noroeste 0 -- -- 50
2020-10-01 12:00:00 19.8 7 Oeste 18 Oeste 0 -- -- 64
2020-10-01 11:00:00 18.4 6 Sudoeste 14 Sudoeste 0 -- -- 76
2020-10-01 10:00:00 16.2 7 Sur 13 Oeste 0 -- -- 90
2020-10-01 09:00:00 17 6 Sur 17 Sur 0 -- -- 96
2020-10-01 08:00:00 17.2 9 Sur 14 Sur 0 -- -- 96
2020-10-01 07:00:00 17 6 Sur 13 Sur 0 -- -- 95
2020-10-01 06:00:00 17.2 8 Sur 14 Sur 0 -- -- 93
2020-10-01 05:00:00 17.4 7 Sur 12 Sur 0 -- -- 92
2020-10-01 04:00:00 17.1 8 Sur 12 Sur 0 -- -- 89
2020-10-01 03:00:00 17.2 3 Sur 7 Sur 0 -- -- 87
2020-10-01 02:00:00 18.3 3 Sur 9 Sudeste 0 -- -- 88
2020-10-01 01:00:00 18.8 4 Sur 6 Sur 0 -- -- 88
2020-10-01 00:00:00 19.6 5 Sudoeste 11 Noroeste 0 -- -- 84